createdAt,value
2019-05-21T00:01:52.496Z,75.55
2019-05-21T00:04:28.371Z,68.37
2019-05-21T00:06:52.249Z,69.85
2019-05-21T00:09:21.310Z,73.52
2019-05-21T00:11:50.302Z,70.95
2019-05-21T00:14:19.606Z,72.15
2019-05-21T00:16:48.606Z,74.90
2019-05-21T00:19:17.667Z,76.28
2019-05-21T00:21:46.677Z,73.25
2019-05-21T00:24:15.722Z,82.65
2019-05-21T00:26:44.682Z,73.20
2019-05-21T00:29:49.900Z,78.50
2019-05-21T00:32:55.281Z,76.95
2019-05-21T00:36:00.261Z,74.60
2019-05-21T00:39:05.613Z,72.20
2019-05-21T00:42:08.689Z,68.80
2019-05-21T00:44:40.794Z,69.82
2019-05-21T00:47:11.994Z,74.97
2019-05-21T00:49:41.122Z,65.50
2019-05-21T00:52:10.228Z,66.02
2019-05-21T00:54:39.299Z,69.12
2019-05-21T00:57:08.347Z,71.37
2019-05-21T00:59:37.362Z,68.83
2019-05-21T01:02:06.663Z,71.80
2019-05-21T01:04:35.661Z,67.75
2019-05-21T01:07:04.777Z,70.50
2019-05-21T01:09:33.745Z,63.13
2019-05-21T01:12:02.808Z,68.95
2019-05-21T01:14:31.801Z,70.92
2019-05-21T01:17:00.762Z,68.60
2019-05-21T01:19:29.854Z,72.60
2019-05-21T01:21:58.822Z,78.10
2019-05-21T01:24:27.902Z,88.50
2019-05-21T01:26:56.942Z,86.32
2019-05-21T01:29:25.999Z,89.13
2019-05-21T01:31:55.486Z,82.88
2019-05-21T01:34:24.451Z,89.65
2019-05-21T01:36:53.493Z,87.88
2019-05-21T01:39:22.561Z,84.10
2019-05-21T01:41:51.533Z,88.37
2019-05-21T01:44:20.543Z,93.00
2019-05-21T01:46:49.571Z,89.60
2019-05-21T01:49:18.614Z,85.83
2019-05-21T01:51:47.594Z,82.08
2019-05-21T01:54:16.564Z,88.50
2019-05-21T01:56:45.635Z,76.28
2019-05-21T01:59:14.606Z,82.42
2019-05-21T02:01:43.569Z,67.12
2019-05-21T02:04:12.560Z,73.50
2019-05-21T02:06:41.655Z,82.10
2019-05-21T02:09:10.653Z,86.15
2019-05-21T02:11:39.611Z,86.25
2019-05-21T02:14:08.586Z,78.47
2019-05-21T02:16:37.659Z,85.38
2019-05-21T02:19:06.708Z,82.12
2019-05-21T02:21:35.855Z,77.70
2019-05-21T02:24:04.937Z,77.60
2019-05-21T02:26:33.986Z,79.35
2019-05-21T02:29:03.076Z,75.78
2019-05-21T02:31:32.479Z,73.45
2019-05-21T02:34:01.551Z,77.35
2019-05-21T02:36:30.553Z,78.78
2019-05-21T02:38:59.602Z,79.53
2019-05-21T02:41:28.680Z,73.52
2019-05-21T02:43:57.734Z,81.15
2019-05-21T02:46:26.717Z,83.20
2019-05-21T02:48:55.755Z,82.42
2019-05-21T02:51:25.456Z,77.50
2019-05-21T02:53:54.562Z,81.28
2019-05-21T02:56:23.580Z,78.22
2019-05-21T02:58:52.632Z,77.87
2019-05-21T03:01:32.293Z,87.10
2019-05-21T03:04:01.399Z,84.00
2019-05-21T03:06:30.405Z,89.60
2019-05-21T03:08:59.457Z,86.32
2019-05-21T03:11:28.562Z,87.25
2019-05-21T03:13:57.618Z,80.25
2019-05-21T03:16:26.651Z,83.10
2019-05-21T03:18:55.896Z,90.00
2019-05-21T03:21:25.017Z,97.03
2019-05-21T03:23:54.129Z,93.20
2019-05-21T03:26:23.105Z,92.47
2019-05-21T03:28:52.109Z,90.65
2019-05-21T03:31:21.167Z,95.45
2019-05-21T03:33:50.145Z,100.02
2019-05-21T03:36:32.723Z,99.20
2019-05-21T03:38:49.900Z,97.30
2019-05-21T03:41:18.977Z,84.80
2019-05-21T03:43:48.012Z,92.30
2019-05-21T03:46:17.056Z,90.57
2019-05-21T03:48:46.163Z,92.95
2019-05-21T03:51:15.266Z,79.17
2019-05-21T03:53:44.266Z,83.17
2019-05-21T03:56:13.305Z,82.40
2019-05-21T03:58:42.283Z,81.92
2019-05-21T04:01:11.283Z,84.22
2019-05-21T04:03:40.631Z,80.42
2019-05-21T04:06:09.790Z,79.20
2019-05-21T04:08:38.750Z,85.22
2019-05-21T04:11:07.710Z,76.17
2019-05-21T04:13:36.693Z,77.75
2019-05-21T04:16:10.389Z,69.25
2019-05-21T04:21:09.230Z,70.28
2019-05-21T04:23:38.282Z,60.05
2019-05-21T04:26:07.347Z,62.95
2019-05-21T04:28:36.382Z,60.08
2019-05-21T04:31:05.392Z,59.85
2019-05-21T04:33:34.364Z,55.08
2019-05-21T04:36:03.333Z,53.63
2019-05-21T04:38:32.310Z,51.75
2019-05-21T04:41:01.285Z,56.90
2019-05-21T04:43:30.315Z,55.08
2019-05-21T04:45:59.335Z,55.45
2019-05-21T04:48:28.646Z,50.38
2019-05-21T04:50:57.700Z,48.25
2019-05-21T04:53:26.769Z,45.43
2019-05-21T04:55:56.204Z,52.75
2019-05-21T04:58:25.246Z,48.68
2019-05-21T05:00:54.225Z,45.88
2019-05-21T05:03:23.231Z,46.35
2019-05-21T05:05:52.594Z,43.08
2019-05-21T05:08:21.983Z,47.33
2019-05-21T05:10:51.046Z,47.95
2019-05-21T05:13:20.009Z,43.45
2019-05-21T05:15:49.065Z,46.35
2019-05-21T05:18:18.110Z,40.08
2019-05-21T05:20:47.208Z,49.08
2019-05-21T05:23:16.244Z,43.17
2019-05-21T05:25:45.211Z,45.70
2019-05-21T05:28:14.194Z,44.00
2019-05-21T05:30:43.234Z,43.15
2019-05-21T05:33:12.303Z,39.98
2019-05-21T05:35:41.366Z,42.88
2019-05-21T05:38:10.357Z,45.60
2019-05-21T05:40:39.425Z,40.70
2019-05-21T05:43:08.485Z,48.33
2019-05-21T05:45:37.553Z,42.27
2019-05-21T05:48:06.615Z,45.08
2019-05-21T05:50:37.307Z,42.62
2019-05-21T05:53:06.365Z,42.43
2019-05-21T05:55:35.325Z,41.40
2019-05-21T05:58:04.508Z,39.08
2019-05-21T06:00:33.587Z,36.15
2019-05-21T06:03:02.588Z,43.90
2019-05-21T06:05:31.580Z,40.58
2019-05-21T06:08:00.773Z,35.70
2019-05-21T06:10:29.923Z,40.48
2019-05-21T06:12:58.909Z,41.63
2019-05-21T06:15:28.343Z,37.33
2019-05-21T06:17:57.600Z,43.40
2019-05-21T06:20:26.709Z,43.23
2019-05-21T06:22:55.689Z,38.63
2019-05-21T06:25:25.123Z,37.00
2019-05-21T06:27:54.576Z,34.98
2019-05-21T06:30:23.685Z,36.30
2019-05-21T06:32:52.647Z,34.95
2019-05-21T06:35:21.624Z,32.33
2019-05-21T06:37:50.590Z,34.67
2019-05-21T06:40:20.095Z,34.00
2019-05-21T06:42:49.146Z,33.15
2019-05-21T06:45:19.622Z,32.75
2019-05-21T06:47:48.619Z,33.28
2019-05-21T06:50:17.847Z,33.30
2019-05-21T06:52:46.890Z,39.45
2019-05-21T06:55:16.221Z,38.25
2019-05-21T06:57:45.207Z,39.25
2019-05-21T07:00:15.228Z,36.08
2019-05-21T07:02:44.281Z,34.75
2019-05-21T07:05:13.640Z,35.80
2019-05-21T07:07:42.609Z,37.00
2019-05-21T07:10:11.889Z,35.43
2019-05-21T07:12:40.936Z,37.38
2019-05-21T07:15:10.248Z,35.52
2019-05-21T07:17:39.635Z,33.53
2019-05-21T07:20:09.904Z,38.58
2019-05-21T07:22:38.901Z,37.38
2019-05-21T07:25:08.367Z,41.55
2019-05-21T07:27:37.343Z,39.45
2019-05-21T07:30:08.353Z,39.25
2019-05-21T07:32:37.401Z,40.50
2019-05-21T07:35:07.220Z,40.00
2019-05-21T07:37:36.274Z,39.30
2019-05-21T07:40:07.041Z,39.13
2019-05-21T07:42:36.150Z,34.85
2019-05-21T07:45:08.238Z,33.33
2019-05-21T07:47:37.208Z,33.88
2019-05-21T07:50:07.718Z,39.50
2019-05-21T07:52:36.783Z,35.17
2019-05-21T07:55:06.625Z,38.25
2019-05-21T07:57:35.581Z,40.45
2019-05-21T08:00:06.475Z,35.88
2019-05-21T08:02:35.532Z,36.23
2019-05-21T08:05:05.828Z,35.20
2019-05-21T08:07:35.409Z,37.55
2019-05-21T08:10:09.163Z,38.25
2019-05-21T08:12:39.677Z,36.20
2019-05-21T08:15:09.738Z,38.78
2019-05-21T08:17:39.156Z,36.15
2019-05-21T08:20:11.091Z,37.03
2019-05-21T08:22:40.415Z,42.78
2019-05-21T08:25:13.849Z,29.55
2019-05-21T08:27:40.587Z,29.50
2019-05-21T08:30:11.023Z,28.20
2019-05-21T08:32:40.131Z,29.25
2019-05-21T08:35:10.389Z,31.17
2019-05-21T08:37:39.473Z,29.45
2019-05-21T08:40:09.944Z,31.55
2019-05-21T08:42:38.995Z,34.48
2019-05-21T08:45:10.730Z,26.77
2019-05-21T08:47:39.837Z,24.87
2019-05-21T08:50:09.943Z,24.12
2019-05-21T08:52:39.212Z,23.60
2019-05-21T08:55:09.085Z,21.75
2019-05-21T08:57:38.385Z,19.80
2019-05-21T09:00:10.802Z,20.82
2019-05-21T09:02:39.919Z,21.70
2019-05-21T09:05:09.886Z,22.40
2019-05-21T09:07:38.928Z,21.65
2019-05-21T09:10:08.254Z,22.40
2019-05-21T09:12:37.384Z,24.18
2019-05-21T09:15:07.909Z,26.27
2019-05-21T09:17:36.956Z,20.40
2019-05-21T09:20:09.061Z,20.48
2019-05-21T09:22:38.147Z,18.35
2019-05-21T09:25:07.576Z,17.92
2019-05-21T09:27:36.907Z,22.02
2019-05-21T09:30:10.778Z,18.30
2019-05-21T09:32:39.847Z,20.85
2019-05-21T09:35:10.658Z,26.23
2019-05-21T09:37:39.748Z,23.07
2019-05-21T09:40:10.488Z,21.65
2019-05-21T09:42:39.622Z,20.85
2019-05-21T09:45:09.149Z,22.32
2019-05-21T09:47:38.336Z,17.87
2019-05-21T09:50:08.545Z,17.10
2019-05-21T09:52:37.601Z,17.07
2019-05-21T09:55:06.812Z,18.55
2019-05-21T09:57:37.600Z,22.62
2019-05-21T10:00:30.420Z,21.07
2019-05-21T10:02:59.487Z,24.20
2019-05-21T10:05:28.485Z,20.65
2019-05-21T10:07:57.530Z,22.42
2019-05-21T10:10:26.599Z,18.65
2019-05-21T10:12:55.590Z,19.57
2019-05-21T10:15:24.677Z,21.80
2019-05-21T10:17:53.715Z,19.42
2019-05-21T10:20:22.836Z,18.45
2019-05-21T10:22:51.906Z,23.73
2019-05-21T10:25:21.246Z,19.30
2019-05-21T10:27:50.557Z,19.35
2019-05-21T10:30:20.131Z,17.82
2019-05-21T10:32:49.213Z,16.20
2019-05-21T10:35:18.262Z,21.25
2019-05-21T10:37:54.917Z,20.95
2019-05-21T10:40:18.425Z,18.62
2019-05-21T10:42:47.385Z,18.45
2019-05-21T10:45:16.538Z,17.52
2019-05-21T10:47:45.509Z,21.57
2019-05-21T10:50:14.715Z,18.92
2019-05-21T10:52:43.790Z,19.15
2019-05-21T10:55:17.620Z,19.00
2019-05-21T10:57:46.940Z,19.62
2019-05-21T11:00:23.003Z,20.80
2019-05-21T11:02:56.572Z,18.23
2019-05-21T11:05:28.964Z,17.20
2019-05-21T11:08:20.725Z,15.98
2019-05-21T11:10:29.183Z,16.30
2019-05-21T11:12:58.248Z,17.67
2019-05-21T11:15:27.403Z,16.60
2019-05-21T11:18:09.689Z,19.02
2019-05-21T11:20:27.512Z,16.95
2019-05-21T11:22:58.416Z,14.87
2019-05-21T11:25:27.955Z,14.73
2019-05-21T11:27:57.004Z,16.27
2019-05-21T11:30:25.970Z,13.53
2019-05-21T11:32:55.059Z,14.60
2019-05-21T11:35:24.093Z,14.85
2019-05-21T11:37:54.119Z,12.85
2019-05-21T11:40:24.227Z,14.70
2019-05-21T11:42:53.538Z,12.68
2019-05-21T11:45:31.627Z,13.05
2019-05-21T11:47:54.746Z,16.80
2019-05-21T11:50:24.242Z,12.23
2019-05-21T11:52:53.300Z,18.05
2019-05-21T11:55:22.396Z,12.20
2019-05-21T11:57:51.445Z,12.93
2019-05-21T12:00:22.611Z,14.35
2019-05-21T12:02:51.671Z,14.78
2019-05-21T12:05:20.643Z,12.13
2019-05-21T12:07:49.749Z,11.75
2019-05-21T12:10:18.816Z,13.00
2019-05-21T12:12:47.867Z,12.60
2019-05-21T12:15:17.884Z,10.65
2019-05-21T12:17:46.839Z,11.68
2019-05-21T12:20:16.591Z,10.80
2019-05-21T12:22:45.576Z,10.25
2019-05-21T12:25:14.607Z,15.05
2019-05-21T12:27:43.611Z,11.10
2019-05-21T12:30:13.267Z,12.13
2019-05-21T12:32:42.235Z,11.63
2019-05-21T12:35:11.446Z,10.32
2019-05-21T12:37:40.799Z,12.15
2019-05-21T12:40:10.705Z,15.63
2019-05-21T12:42:39.879Z,13.35
2019-05-21T12:45:09.550Z,12.07
2019-05-21T12:47:38.604Z,15.10
2019-05-21T12:50:08.020Z,12.78
2019-05-21T12:52:37.172Z,10.65
2019-05-21T12:55:07.942Z,11.93
2019-05-21T12:57:37.047Z,12.58
2019-05-21T13:00:10.004Z,11.22
2019-05-21T13:05:11.132Z,12.25
2019-05-21T13:07:38.557Z,12.80
2019-05-21T13:10:08.374Z,11.00
2019-05-21T13:12:37.501Z,14.73
2019-05-21T13:15:07.379Z,13.08
2019-05-21T13:17:36.447Z,9.40
2019-05-21T13:20:08.141Z,16.77
2019-05-21T13:22:37.799Z,13.43
2019-05-21T13:25:07.496Z,11.48
2019-05-21T13:27:36.458Z,9.65
2019-05-21T13:30:07.706Z,14.70
2019-05-21T13:32:36.739Z,10.98
2019-05-21T13:35:08.522Z,20.88
2019-05-21T13:37:37.900Z,11.80
2019-05-21T13:40:09.517Z,11.45
2019-05-21T13:42:38.655Z,13.28
2019-05-21T13:45:08.471Z,9.68
2019-05-21T13:47:37.512Z,13.48
2019-05-21T13:50:08.237Z,15.00
2019-05-21T13:52:37.448Z,13.45
2019-05-21T13:55:08.023Z,10.68
2019-05-21T13:57:37.076Z,10.43
2019-05-21T14:00:12.002Z,7.35
2019-05-21T14:02:41.125Z,11.18
2019-05-21T14:05:10.793Z,15.20
2019-05-21T14:07:40.090Z,11.22
2019-05-21T14:10:17.209Z,12.95
2019-05-21T14:12:40.389Z,12.43
2019-05-21T14:15:09.807Z,10.00
2019-05-21T14:17:38.921Z,9.70
2019-05-21T14:20:09.019Z,11.43
2019-05-21T14:22:38.022Z,13.15
2019-05-21T14:25:08.006Z,11.38
2019-05-21T14:27:44.328Z,12.13
2019-05-21T14:30:09.778Z,14.53
2019-05-21T14:32:38.894Z,11.85
2019-05-21T14:35:07.923Z,14.07
2019-05-21T14:37:36.909Z,18.25
2019-05-21T14:40:08.330Z,12.68
2019-05-21T14:42:37.447Z,9.98
2019-05-21T14:45:08.349Z,8.83
2019-05-21T14:47:37.883Z,11.05
2019-05-21T14:50:08.984Z,12.43
2019-05-21T14:52:38.335Z,12.30
2019-05-21T14:55:07.815Z,13.05
2019-05-21T14:57:36.968Z,9.43
2019-05-21T15:00:09.416Z,11.68
2019-05-21T15:02:38.742Z,9.93
2019-05-21T15:05:08.611Z,11.78
2019-05-21T15:07:37.580Z,11.30
2019-05-21T15:10:06.787Z,10.53
2019-05-21T15:12:35.831Z,10.95
2019-05-21T15:15:06.984Z,13.75
2019-05-21T15:17:36.076Z,10.90
2019-05-21T15:20:27.097Z,8.63
2019-05-21T15:22:56.268Z,12.07
2019-05-21T15:25:25.349Z,7.80
2019-05-21T15:27:54.315Z,11.85
2019-05-21T15:30:23.309Z,8.53
2019-05-21T15:32:52.356Z,9.45
2019-05-21T15:35:21.617Z,8.93
2019-05-21T15:37:50.762Z,12.53
2019-05-21T15:40:20.569Z,16.42
2019-05-21T15:42:52.653Z,8.53
2019-05-21T15:45:20.453Z,11.05
2019-05-21T15:47:49.608Z,14.33
2019-05-21T15:50:18.800Z,7.15
2019-05-21T15:52:47.857Z,8.10
2019-05-21T15:55:16.891Z,8.83
2019-05-21T15:57:45.926Z,8.23
2019-05-21T16:00:16.491Z,7.08
2019-05-21T16:02:45.531Z,7.92
2019-05-21T16:05:14.874Z,7.15
2019-05-21T16:07:43.873Z,9.18
2019-05-21T16:10:13.052Z,8.55
2019-05-21T16:12:42.250Z,7.28
2019-05-21T16:15:11.914Z,8.35
2019-05-21T16:17:40.956Z,7.05
2019-05-21T16:20:10.636Z,7.72
2019-05-21T16:22:39.612Z,10.30
2019-05-21T16:25:09.808Z,9.78
2019-05-21T16:27:38.850Z,7.92
2019-05-21T16:30:09.835Z,9.75
2019-05-21T16:32:38.998Z,10.03
2019-05-21T16:35:08.907Z,9.45
2019-05-21T16:37:38.156Z,7.12
2019-05-21T16:40:07.826Z,9.33
2019-05-21T16:42:36.874Z,12.80
2019-05-21T16:45:08.560Z,6.62
2019-05-21T16:47:45.978Z,7.78
2019-05-21T16:50:09.545Z,8.30
2019-05-21T16:52:39.153Z,6.78
2019-05-21T16:55:08.395Z,9.35
2019-05-21T16:57:37.878Z,8.68
2019-05-21T17:00:09.344Z,8.60
2019-05-21T17:02:38.360Z,12.78
2019-05-21T17:05:08.438Z,9.20
2019-05-21T17:07:37.579Z,9.63
2019-05-21T17:10:08.025Z,9.98
2019-05-21T17:12:37.090Z,11.80
2019-05-21T17:15:08.250Z,11.33
2019-05-21T17:17:37.355Z,9.15
2019-05-21T17:20:08.589Z,11.53
2019-05-21T17:22:37.822Z,11.30
2019-05-21T17:25:10.478Z,11.93
2019-05-21T17:27:39.646Z,12.10
2019-05-21T17:30:09.567Z,10.93
2019-05-21T17:32:39.016Z,10.45
2019-05-21T17:35:09.331Z,12.73
2019-05-21T17:37:38.418Z,14.18
2019-05-21T17:40:08.364Z,10.60
2019-05-21T17:42:37.930Z,14.00
2019-05-21T17:45:13.333Z,11.65
2019-05-21T17:47:42.698Z,10.23
2019-05-21T17:50:13.289Z,12.90
2019-05-21T17:52:42.263Z,12.75
2019-05-21T17:55:12.333Z,13.90
2019-05-21T17:57:41.752Z,13.30
2019-05-21T18:00:11.514Z,13.70
2019-05-21T18:02:41.142Z,11.95
2019-05-21T18:05:11.284Z,14.68
2019-05-21T18:07:40.964Z,13.88
2019-05-21T18:10:11.164Z,14.50
2019-05-21T18:12:40.228Z,15.15
2019-05-21T18:15:10.879Z,13.98
2019-05-21T18:17:41.519Z,17.60
2019-05-21T18:20:13.091Z,14.33
2019-05-21T18:22:43.807Z,15.00
2019-05-21T18:25:14.364Z,15.53
2019-05-21T18:27:43.708Z,16.82
2019-05-21T18:30:14.189Z,13.62
2019-05-21T18:32:43.648Z,19.15
2019-05-21T18:35:13.272Z,16.45
2019-05-21T18:37:43.314Z,15.55
2019-05-21T18:40:12.846Z,17.67
2019-05-21T18:42:42.221Z,19.12
2019-05-21T18:45:11.756Z,17.35
2019-05-21T18:47:41.132Z,18.77
2019-05-21T18:50:10.837Z,17.07
2019-05-21T18:52:39.825Z,17.07
2019-05-21T18:55:11.603Z,17.98
2019-05-21T18:57:40.753Z,16.30
2019-05-21T19:00:11.372Z,20.82
2019-05-21T19:02:40.649Z,16.73
2019-05-21T19:05:10.030Z,18.12
2019-05-21T19:07:39.205Z,14.18
2019-05-21T19:10:09.615Z,14.85
2019-05-21T19:12:39.712Z,20.27
2019-05-21T19:15:09.755Z,20.15
2019-05-21T19:17:39.231Z,16.57
2019-05-21T19:20:10.341Z,20.80
2019-05-21T19:22:39.335Z,20.15
2019-05-21T19:25:08.937Z,19.60
2019-05-21T19:27:38.438Z,20.25
2019-05-21T19:30:08.671Z,18.15
2019-05-21T19:32:39.016Z,18.95
2019-05-21T19:35:08.640Z,18.23
2019-05-21T19:37:37.616Z,18.07
2019-05-21T19:40:07.500Z,19.62
2019-05-21T19:42:36.627Z,20.55
2019-05-21T19:45:07.452Z,23.87
2019-05-21T19:47:36.548Z,20.72
2019-05-21T19:50:09.938Z,20.45
2019-05-21T19:52:39.069Z,23.98
2019-05-21T19:55:08.287Z,19.45
2019-05-21T19:57:38.519Z,17.95
2019-05-21T20:00:09.020Z,19.98
2019-05-21T20:02:38.914Z,21.77
2019-05-21T20:05:09.060Z,20.57
2019-05-21T20:07:39.658Z,23.10
2019-05-21T20:10:09.970Z,22.17
2019-05-21T20:12:40.316Z,21.23
2019-05-21T20:15:10.978Z,27.73
2019-05-21T20:17:43.143Z,22.75
2019-05-21T20:20:14.318Z,22.60
2019-05-21T20:22:43.700Z,21.75
2019-05-21T20:25:13.114Z,23.85
2019-05-21T20:27:42.452Z,21.57
2019-05-21T20:30:15.849Z,21.55
2019-05-21T20:32:46.520Z,23.32
2019-05-21T20:35:18.408Z,23.90
2019-05-21T20:37:49.116Z,25.23
2019-05-21T20:40:18.518Z,22.87
2019-05-21T20:42:48.146Z,26.33
2019-05-21T20:45:19.007Z,26.23
2019-05-21T20:47:50.476Z,22.45
2019-05-21T20:50:21.872Z,26.48
2019-05-21T20:52:51.927Z,25.68
2019-05-21T20:55:22.824Z,27.30
2019-05-21T20:57:53.368Z,25.20
2019-05-21T21:00:25.092Z,24.80
2019-05-21T21:02:54.752Z,25.55
2019-05-21T21:05:24.378Z,25.12
2019-05-21T21:07:54.234Z,24.47
2019-05-21T21:10:23.214Z,27.10
2019-05-21T21:12:52.772Z,26.50
2019-05-21T21:15:21.828Z,27.07
2019-05-21T21:17:50.866Z,23.27
2019-05-21T21:20:19.901Z,28.92
2019-05-21T21:22:48.891Z,26.85
2019-05-21T21:25:22.594Z,24.20
2019-05-21T21:27:52.141Z,26.10
2019-05-21T21:30:21.250Z,24.07
2019-05-21T21:32:50.972Z,24.50
2019-05-21T21:35:20.188Z,27.17
2019-05-21T21:37:49.625Z,26.10
2019-05-21T21:40:18.715Z,24.10
2019-05-21T21:42:47.773Z,26.30
2019-05-21T21:45:16.881Z,25.37
2019-05-21T21:47:46.110Z,26.50
2019-05-21T21:50:16.129Z,24.95
2019-05-21T21:52:45.165Z,26.52
2019-05-21T21:55:14.545Z,27.62
2019-05-21T21:57:43.584Z,27.85
2019-05-21T22:00:27.727Z,29.52
2019-05-21T22:02:59.840Z,26.87
2019-05-21T22:05:29.562Z,28.35
2019-05-21T22:07:58.676Z,30.45
2019-05-21T22:10:28.072Z,29.20
2019-05-21T22:12:57.301Z,29.32
2019-05-21T22:15:26.285Z,34.85
2019-05-21T22:17:55.405Z,28.60
2019-05-21T22:20:24.381Z,30.12
2019-05-21T22:22:53.379Z,27.22
2019-05-21T22:25:22.348Z,28.25
2019-05-21T22:27:51.663Z,29.40
2019-05-21T22:30:21.183Z,29.02
2019-05-21T22:32:50.219Z,29.98
2019-05-21T22:35:19.428Z,28.55
2019-05-21T22:37:48.386Z,28.90
2019-05-21T22:40:17.415Z,29.70
2019-05-21T22:42:46.396Z,28.07
2019-05-21T22:45:15.850Z,30.97
2019-05-21T22:47:44.853Z,28.17
2019-05-21T22:50:14.424Z,28.25
2019-05-21T22:52:43.388Z,29.23
2019-05-21T22:55:13.407Z,27.90
2019-05-21T22:57:42.471Z,32.98
2019-05-21T23:00:12.876Z,28.80
2019-05-21T23:02:43.348Z,29.90
2019-05-21T23:05:13.026Z,32.13
2019-05-21T23:07:42.069Z,30.00
2019-05-21T23:10:12.251Z,31.48
2019-05-21T23:12:41.315Z,33.53
2019-05-21T23:15:23.874Z,31.62
2019-05-21T23:17:43.192Z,31.20
2019-05-21T23:20:14.308Z,33.13
2019-05-21T23:22:45.177Z,29.18
2019-05-21T23:25:14.158Z,34.15
2019-05-21T23:27:43.369Z,30.10
2019-05-21T23:30:14.562Z,30.82
2019-05-21T23:32:46.978Z,30.00
2019-05-21T23:35:17.224Z,28.27
2019-05-21T23:37:47.667Z,35.68
2019-05-21T23:40:17.193Z,37.45
2019-05-21T23:42:47.253Z,34.50
2019-05-21T23:45:16.612Z,34.73
2019-05-21T23:47:45.867Z,38.85
2019-05-21T23:50:16.408Z,37.30
2019-05-21T23:52:46.318Z,32.48
2019-05-21T23:55:15.439Z,33.90
2019-05-21T23:57:45.160Z,34.73
